createdAt,value
2022-12-03T00:00:13.093Z,37.30
2022-12-03T00:05:09.775Z,35.30
2022-12-03T00:10:09.506Z,35.70
2022-12-03T00:15:10.323Z,37.50
2022-12-03T00:20:15.959Z,36.70
2022-12-03T00:25:09.413Z,35.50
2022-12-03T00:30:10.869Z,36.10
2022-12-03T00:35:09.697Z,33.90
2022-12-03T00:40:11.050Z,33.50
2022-12-03T00:45:09.488Z,35.30
2022-12-03T00:50:09.545Z,33.60
2022-12-03T00:55:09.223Z,33.20
2022-12-03T01:00:11.297Z,34.80
2022-12-03T01:05:08.941Z,33.60
2022-12-03T01:10:09.859Z,33.00
2022-12-03T01:15:09.600Z,35.10
2022-12-03T01:20:10.415Z,33.90
2022-12-03T01:25:09.317Z,32.80
2022-12-03T01:30:10.946Z,32.00
2022-12-03T01:35:08.955Z,30.10
2022-12-03T01:40:14.029Z,31.00
2022-12-03T01:45:17.182Z,30.70
2022-12-03T01:50:17.073Z,29.90
2022-12-03T01:55:14.494Z,29.50
2022-12-03T02:00:13.166Z,29.50
2022-12-03T02:05:18.460Z,29.80
2022-12-03T02:10:11.851Z,26.70
2022-12-03T02:15:09.728Z,26.40
2022-12-03T02:20:13.567Z,26.10
2022-12-03T02:25:12.103Z,27.10
2022-12-03T02:30:11.929Z,23.80
2022-12-03T02:35:13.762Z,25.40
2022-12-03T02:40:12.857Z,25.10
2022-12-03T02:45:13.142Z,25.40
2022-12-03T02:50:11.383Z,25.40
2022-12-03T02:55:10.028Z,24.90
2022-12-03T03:00:10.264Z,24.10
2022-12-03T03:05:10.845Z,24.80
2022-12-03T03:10:13.587Z,24.60
2022-12-03T03:15:10.628Z,23.70
2022-12-03T03:20:11.548Z,24.70
2022-12-03T03:25:11.149Z,25.00
2022-12-03T03:30:09.868Z,24.40
2022-12-03T03:35:10.993Z,26.40
2022-12-03T03:40:10.002Z,25.20
2022-12-03T03:45:09.476Z,23.70
2022-12-03T03:50:11.297Z,25.00
2022-12-03T03:55:10.929Z,24.40
2022-12-03T04:00:10.586Z,24.40
2022-12-03T04:05:16.092Z,24.40
2022-12-03T04:10:19.453Z,26.00
2022-12-03T04:15:09.222Z,26.00
2022-12-03T04:20:09.488Z,25.30
2022-12-03T04:25:19.589Z,24.60
2022-12-03T04:30:09.206Z,25.30
2022-12-03T04:35:19.507Z,25.90
2022-12-03T04:40:18.853Z,25.10
2022-12-03T04:45:09.660Z,28.20
2022-12-03T04:50:09.706Z,28.30
2022-12-03T04:55:08.626Z,27.20
2022-12-03T05:00:11.124Z,24.50
2022-12-03T05:05:09.835Z,25.70
2022-12-03T05:10:10.781Z,27.10
2022-12-03T05:15:09.055Z,26.10
2022-12-03T05:20:19.017Z,27.10
2022-12-03T05:25:09.515Z,27.40
2022-12-03T05:30:09.838Z,24.80
2022-12-03T05:35:09.564Z,28.00
2022-12-03T05:40:10.010Z,25.50
2022-12-03T05:45:09.750Z,25.20
2022-12-03T05:50:08.985Z,24.60
2022-12-03T05:55:09.731Z,25.10
2022-12-03T06:00:14.107Z,25.90
2022-12-03T06:05:10.063Z,26.70
2022-12-03T06:10:13.196Z,27.10
2022-12-03T06:15:09.988Z,25.40
2022-12-03T06:20:13.348Z,27.50
2022-12-03T06:25:09.758Z,26.70
2022-12-03T06:30:12.923Z,27.70
2022-12-03T06:35:08.829Z,25.40
2022-12-03T06:40:09.274Z,25.20
2022-12-03T06:45:10.542Z,23.90
2022-12-03T06:50:09.323Z,29.60
2022-12-03T06:55:09.182Z,29.80
2022-12-03T07:00:09.415Z,48.30
2022-12-03T07:05:08.771Z,43.00
2022-12-03T07:10:09.352Z,72.90
2022-12-03T07:15:09.884Z,45.70
2022-12-03T07:20:09.486Z,23.70
2022-12-03T07:25:08.908Z,34.30
2022-12-03T07:30:12.790Z,26.70
2022-12-03T07:35:09.052Z,36.70
2022-12-03T07:40:09.520Z,27.70
2022-12-03T07:45:09.292Z,29.10
2022-12-03T07:50:09.418Z,40.50
2022-12-03T07:55:09.130Z,29.90
2022-12-03T08:00:10.890Z,26.30
2022-12-03T08:05:08.798Z,40.80
2022-12-03T08:10:09.268Z,30.50
2022-12-03T08:15:12.990Z,43.70
2022-12-03T08:20:13.170Z,55.50
2022-12-03T08:25:14.135Z,37.10
2022-12-03T08:30:11.928Z,37.30
2022-12-03T08:35:11.951Z,35.40
2022-12-03T08:40:20.372Z,28.90
2022-12-03T08:45:28.371Z,41.30
2022-12-03T08:50:24.791Z,36.80
2022-12-03T08:52:01.222Z,36.80
2022-12-03T08:55:28.301Z,62.80
2022-12-03T09:00:17.877Z,36.70
2022-12-03T09:05:14.878Z,39.00
2022-12-03T09:10:09.719Z,29.70
2022-12-03T09:15:09.179Z,47.80
2022-12-03T09:20:11.046Z,41.40
2022-12-03T09:25:08.782Z,52.30
2022-12-03T09:30:09.284Z,42.40
2022-12-03T09:35:08.894Z,31.80
2022-12-03T09:40:10.074Z,40.90
2022-12-03T09:45:13.383Z,35.10
2022-12-03T09:50:12.035Z,32.30
2022-12-03T09:55:14.967Z,29.70
2022-12-03T10:00:15.428Z,28.40
2022-12-03T10:05:08.419Z,29.90
2022-12-03T10:10:15.585Z,29.70
2022-12-03T10:15:12.008Z,33.70
2022-12-03T10:20:12.825Z,31.60
2022-12-03T10:25:11.427Z,32.40
2022-12-03T10:30:15.364Z,27.70
2022-12-03T10:35:11.256Z,28.80
2022-12-03T10:40:11.023Z,27.10
2022-12-03T10:45:15.578Z,29.10
2022-12-03T10:50:18.292Z,28.90
2022-12-03T10:55:09.783Z,31.90
2022-12-03T11:00:15.526Z,29.10
2022-12-03T11:05:13.329Z,28.80
2022-12-03T11:10:12.704Z,32.00
2022-12-03T11:15:14.633Z,31.60
2022-12-03T11:20:11.917Z,34.00
2022-12-03T11:25:28.439Z,70.40
2022-12-03T11:30:09.071Z,63.00
2022-12-03T11:35:11.839Z,49.20
2022-12-03T11:40:28.254Z,65.70
2022-12-03T11:45:17.658Z,34.10
2022-12-03T11:50:19.629Z,35.90
2022-12-03T11:55:17.327Z,37.00
2022-12-03T12:00:18.697Z,32.20
2022-12-03T12:05:21.018Z,42.70
2022-12-03T12:10:10.434Z,31.00
2022-12-03T12:15:28.107Z,36.00
2022-12-03T12:20:12.393Z,31.70
2022-12-03T12:25:28.756Z,30.60
2022-12-03T12:30:13.427Z,31.70
2022-12-03T12:35:14.631Z,32.80
2022-12-03T12:40:12.443Z,28.30
2022-12-03T12:45:14.006Z,29.20
2022-12-03T12:50:10.320Z,30.80
2022-12-03T12:55:08.757Z,30.70
2022-12-03T13:00:13.847Z,32.10
2022-12-03T13:05:11.915Z,31.70
2022-12-03T13:10:23.325Z,30.40
2022-12-03T13:15:28.206Z,33.80
2022-12-03T13:20:16.242Z,31.00
2022-12-03T13:25:50.924Z,31.90
2022-12-03T13:30:15.409Z,33.40
2022-12-03T13:35:21.925Z,32.90
2022-12-03T13:40:22.766Z,33.40
2022-12-03T13:45:28.157Z,35.00
2022-12-03T13:50:19.752Z,35.00
2022-12-03T13:55:10.797Z,32.60
2022-12-03T14:00:10.084Z,35.80
2022-12-03T14:05:09.507Z,34.60
2022-12-03T14:10:11.189Z,33.50
2022-12-03T14:15:10.318Z,33.20
2022-12-03T14:20:08.944Z,33.70
2022-12-03T14:25:09.172Z,31.80
2022-12-03T14:30:09.547Z,34.00
2022-12-03T14:35:10.241Z,35.40
2022-12-03T14:40:08.648Z,34.60
2022-12-03T14:45:08.809Z,36.50
2022-12-03T14:50:13.056Z,35.30
2022-12-03T14:55:08.346Z,36.40
2022-12-03T15:00:09.342Z,39.60
2022-12-03T15:05:08.448Z,36.20
2022-12-03T15:10:08.630Z,35.50
2022-12-03T15:15:08.777Z,37.20
2022-12-03T15:20:09.113Z,38.00
2022-12-03T15:25:08.423Z,36.70
2022-12-03T15:30:09.101Z,38.50
2022-12-03T15:35:08.543Z,37.80
2022-12-03T15:40:08.686Z,37.10
2022-12-03T15:45:13.619Z,38.10
2022-12-03T15:50:08.568Z,37.90
2022-12-03T15:55:09.093Z,38.90
2022-12-03T16:00:10.361Z,39.80
2022-12-03T16:05:10.863Z,38.90
2022-12-03T16:10:10.145Z,40.00
2022-12-03T16:15:08.655Z,41.10
2022-12-03T16:20:08.514Z,40.20
2022-12-03T16:25:08.460Z,39.80
2022-12-03T16:30:10.143Z,40.70
2022-12-03T16:35:08.500Z,42.40
2022-12-03T16:40:08.890Z,42.00
2022-12-03T16:45:18.517Z,43.60
2022-12-03T16:50:14.160Z,45.00
2022-12-03T16:55:08.843Z,44.20
2022-12-03T17:00:09.156Z,45.00
2022-12-03T17:05:08.531Z,46.10
2022-12-03T17:10:09.102Z,54.00
2022-12-03T17:15:09.039Z,44.70
2022-12-03T17:20:11.699Z,47.00
2022-12-03T17:25:08.560Z,48.00
2022-12-03T17:30:09.060Z,46.70
2022-12-03T17:35:09.925Z,47.30
2022-12-03T17:40:10.957Z,49.30
2022-12-03T17:45:09.141Z,48.30
2022-12-03T17:50:08.523Z,48.10
2022-12-03T17:55:12.861Z,48.30
2022-12-03T18:00:08.852Z,47.80
2022-12-03T18:05:08.532Z,52.60
2022-12-03T18:10:08.594Z,49.10
2022-12-03T18:15:08.696Z,47.40
2022-12-03T18:17:41.431Z,47.40
2022-12-03T18:20:08.553Z,50.30
2022-12-03T18:25:09.181Z,48.20
2022-12-03T18:30:08.645Z,51.90
2022-12-03T18:35:08.666Z,52.40
2022-12-03T18:40:15.883Z,49.00
2022-12-03T18:45:10.536Z,48.90
2022-12-03T18:50:09.159Z,48.90
2022-12-03T18:55:15.752Z,47.50
2022-12-03T19:00:13.464Z,49.30
2022-12-03T19:05:08.714Z,49.40
2022-12-03T19:10:09.464Z,50.10
2022-12-03T19:15:08.872Z,47.90
2022-12-03T19:20:10.419Z,47.60
2022-12-03T19:25:08.329Z,49.70
2022-12-03T19:30:09.413Z,49.70
2022-12-03T19:35:11.020Z,48.90
2022-12-03T19:40:09.385Z,46.70
2022-12-03T19:45:09.106Z,44.90
2022-12-03T19:50:08.808Z,46.90
2022-12-03T19:55:08.133Z,60.00
2022-12-03T20:00:08.718Z,50.00
2022-12-03T20:05:07.904Z,49.50
2022-12-03T20:10:08.695Z,47.70
2022-12-03T20:15:08.959Z,47.60
2022-12-03T20:20:10.678Z,46.40
2022-12-03T20:25:08.945Z,47.40
2022-12-03T20:30:08.779Z,47.70
2022-12-03T20:35:08.633Z,49.10
2022-12-03T20:40:09.436Z,46.60
2022-12-03T20:45:09.697Z,47.40
2022-12-03T20:50:08.297Z,46.50
2022-12-03T20:55:08.744Z,47.00
2022-12-03T21:00:08.314Z,47.70
2022-12-03T21:05:08.186Z,48.50
2022-12-03T21:10:19.092Z,48.90
2022-12-03T21:15:08.126Z,49.40
2022-12-03T21:20:08.181Z,47.50
2022-12-03T21:25:08.676Z,47.60
2022-12-03T21:30:08.358Z,45.10
2022-12-03T21:35:07.989Z,47.10
2022-12-03T21:40:08.714Z,46.10
2022-12-03T21:45:08.921Z,46.80
2022-12-03T21:50:10.209Z,47.10
2022-12-03T21:55:09.349Z,45.90
2022-12-03T22:00:09.327Z,44.10
2022-12-03T22:05:09.141Z,46.30
2022-12-03T22:10:10.079Z,45.90
2022-12-03T22:15:13.355Z,42.80
2022-12-03T22:20:08.596Z,43.60
2022-12-03T22:25:08.194Z,44.80
2022-12-03T22:30:08.231Z,43.30
2022-12-03T22:35:08.051Z,44.90
2022-12-03T22:40:08.426Z,46.20
2022-12-03T22:45:08.092Z,43.60
2022-12-03T22:50:08.313Z,41.90
2022-12-03T22:55:08.460Z,43.50
2022-12-03T23:00:09.496Z,41.90
2022-12-03T23:05:07.932Z,42.70
2022-12-03T23:10:08.953Z,43.90
2022-12-03T23:15:08.893Z,43.30
2022-12-03T23:20:10.291Z,40.40
2022-12-03T23:25:09.034Z,42.10
2022-12-03T23:30:09.422Z,39.40
2022-12-03T23:40:21.559Z,39.00
2022-12-03T23:45:21.543Z,39.50
2022-12-03T23:50:21.908Z,33.90
2022-12-03T23:55:22.901Z,37.50
